Map

Track Data

SID SEASON NUMBER BASIN SUBBASIN NAME ISO_TIME NATURE LAT LON WMO_WIND WMO_PRES WMO_AGENCY TRACK_TYPE DIST2LAND LANDFALL IFLAG USA_AGENCY USA_ATCF_ID USA_LAT USA_LON USA_RECORD USA_STATUS USA_WIND USA_PRES USA_SSHS USA_R34_NE USA_R34_SE USA_R34_SW USA_R34_NW USA_R50_NE USA_R50_SE USA_R50_SW USA_R50_NW USA_R64_NE USA_R64_SE USA_R64_SW USA_R64_NW USA_POCI USA_ROCI USA_RMW USA_EYE TOKYO_LAT TOKYO_LON TOKYO_GRADE TOKYO_WIND TOKYO_PRES TOKYO_R50_DIR TOKYO_R50_LONG TOKYO_R50_SHORT TOKYO_R30_DIR TOKYO_R30_LONG TOKYO_R30_SHORT TOKYO_LAND CMA_LAT CMA_LON CMA_CAT CMA_WIND CMA_PRES HKO_LAT HKO_LON HKO_CAT HKO_WIND HKO_PRES NEWDELHI_LAT NEWDELHI_LON NEWDELHI_GRADE NEWDELHI_WIND NEWDELHI_PRES NEWDELHI_CI NEWDELHI_DP NEWDELHI_POCI REUNION_LAT REUNION_LON REUNION_TYPE REUNION_WIND REUNION_PRES REUNION_TNUM REUNION_CI REUNION_RMW REUNION_R34_NE REUNION_R34_SE REUNION_R34_SW REUNION_R34_NW REUNION_R50_NE REUNION_R50_SE REUNION_R50_SW REUNION_R50_NW REUNION_R64_NE REUNION_R64_SE REUNION_R64_SW REUNION_R64_NW BOM_LAT BOM_LON BOM_TYPE BOM_WIND BOM_PRES BOM_TNUM BOM_CI BOM_RMW BOM_R34_NE BOM_R34_SE BOM_R34_SW BOM_R34_NW BOM_R50_NE BOM_R50_SE BOM_R50_SW BOM_R50_NW BOM_R64_NE BOM_R64_SE BOM_R64_SW BOM_R64_NW BOM_ROCI BOM_POCI BOM_EYE BOM_POS_METHOD BOM_PRES_METHOD NADI_LAT NADI_LON NADI_CAT NADI_WIND NADI_PRES WELLINGTON_LAT WELLINGTON_LON WELLINGTON_WIND WELLINGTON_PRES DS824_LAT DS824_LON DS824_STAGE DS824_WIND DS824_PRES TD9636_LAT TD9636_LON TD9636_STAGE TD9636_WIND TD9636_PRES TD9635_LAT TD9635_LON TD9635_WIND TD9635_PRES TD9635_ROCI NEUMANN_LAT NEUMANN_LON NEUMANN_CLASS NEUMANN_WIND NEUMANN_PRES MLC_LAT MLC_LON MLC_CLASS MLC_WIND MLC_PRES USA_GUST BOM_GUST BOM_GUST_PER REUNION_GUST REUNION_GUST_PER USA_SEAHGT USA_SEARAD_NE USA_SEARAD_SE USA_SEARAD_SW USA_SEARAD_NW STORM_SPEED STORM_DIR
1961248N22089 1961 87 NI BB NOT_NAMED 1961-09-05 06:00:00 TS 21.8000 88.5000 main 0 0 O________O____ jtwc_io IO131961 21.8000 88.5000 -1 21.8000 88.5000 TC 1 255
1961248N22089 1961 87 NI BB NOT_NAMED 1961-09-05 09:00:00 TS 21.7900 88.4650 main 0 0 P________P____ IO131961 21.7900 88.4650 -1 21.7900 88.4650 TC 1 270
1961248N22089 1961 87 NI BB NOT_NAMED 1961-09-05 12:00:00 TS 21.8000 88.4000 main 0 0 O________O____ jtwc_io IO131961 21.8000 88.4000 -1 21.8000 88.4000 TC 25 2 286
1961248N22089 1961 87 NI BB NOT_NAMED 1961-09-05 15:00:00 TS 21.8377 88.2822 main 0 0 P________PO___ IO131961 21.8425 88.2800 -1 21.8425 88.2800 TC 25 21.8000 88.3000 1 3 289
1961248N22089 1961 87 NI BB NOT_NAMED 1961-09-05 18:00:00 TS 21.8976 88.0919 main 10 0 O________OP___ jtwc_io IO131961 21.9000 88.1000 -1 21.9000 88.1000 TC 25 21.8878 88.0597 1 4 286
1961248N22089 1961 87 NI BB NOT_NAMED 1961-09-05 21:00:00 TS 21.9556 87.8487 main 0 0 P________PP___ IO131961 21.9501 87.8575 -1 21.9501 87.8575 TC 25 21.9703 87.8253 1 5 284
1961248N22089 1961 87 NI BB NOT_NAMED 1961-09-06 00:00:00 TS 22.0142 87.6011 main 0 0 O________OP___ jtwc_io IO131961 22.0000 87.6000 -1 22.0000 87.6000 TC 25 22.0427 87.6033 1 4 285
1961248N22089 1961 87 NI BB NOT_NAMED 1961-09-06 03:00:00 TS 22.0666 87.3900 main 0 0 P________PO___ IO131961 22.0500 87.3850 -1 22.0500 87.3850 TC 25 22.1000 87.4000 1 4 285
1961248N22089 1961 87 NI BB NOT_NAMED 1961-09-06 06:00:00 TS 22.1131 87.2067 main 0 0 O________OP___ jtwc_io IO131961 22.1000 87.2000 -1 22.1000 87.2000 TC 25 22.1393 87.2202 1 3 286
1961248N22089 1961 87 NI BB NOT_NAMED 1961-09-06 09:00:00 TS 22.1599 87.0441 main 0 0 P________PP___ IO131961 22.1575 87.0350 -1 22.1575 87.0350 TC 25 22.1649 87.0623 1 3 286
1961248N22089 1961 87 NI BB NOT_NAMED 1961-09-06 12:00:00 TS 22.1944 86.9078 main 0 0 O________OP___ jtwc_io IO131961 22.2000 86.9000 -1 22.2000 86.9000 TC 25 22.1831 86.9233 1 2 280
1961248N22089 1961 87 NI BB NOT_NAMED 1961-09-06 15:00:00 TS 22.2000 86.7900 main 0 0 P________PO___ IO131961 22.2000 86.7850 -1 22.2000 86.7850 TC 25 22.2000 86.8000 1 2 273
1961248N22089 1961 87 NI BB NOT_NAMED 1961-09-06 18:00:00 TS 22.2039 86.7249 main 0 0 O________OP___ jtwc_io IO131961 22.2000 86.7000 -1 22.2000 86.7000 TC 25 22.2117 86.7746 1 1 295
1961248N22089 1961 87 NI BB NOT_NAMED 1961-09-06 21:00:00 TS 22.2368 86.7080 main 0 0 P________PP___ IO131961 22.2424 86.6874 -1 22.2424 86.6874 TC 25 22.2256 86.7492 1 1 310
1961248N22089 1961 87 NI BB NOT_NAMED 1961-09-07 00:00:00 TS 22.2839 86.6164 main 0 0 O________OP___ jtwc_io IO131961 22.3000 86.6000 -1 22.3000 86.6000 TC 25 22.2518 86.6493 1 3 286
1961248N22089 1961 87 NI BB NOT_NAMED 1961-09-07 03:00:00 TS 22.3281 86.3649 main 0 0 P________PO___ IO131961 22.3422 86.3473 -1 22.3422 86.3473 TC 25 22.3000 86.4000 1 7 280
1961248N22089 1961 87 NI BB NOT_NAMED 1961-09-07 06:00:00 TS 22.3960 85.8989 main 0 0 O________OP___ jtwc_io IO131961 22.4000 85.9000 -1 22.4000 85.9000 TC 25 22.3881 85.8966 1 10 279
1961248N22089 1961 87 NI BB NOT_NAMED 1961-09-07 09:00:00 TS 22.4935 85.2445 main 0 0 P________PP___ IO131961 22.4929 85.2451 -1 22.4929 85.2451 TC 25 22.4948 85.2434 1 13 279
1961248N22089 1961 87 NI BB NOT_NAMED 1961-09-07 12:00:00 TS 22.6012 84.5061 main 0 0 O________OP___ jtwc_io IO131961 22.6000 84.5000 -1 22.6000 84.5000 TC 25 22.6037 84.5184 1 13 279
1961248N22089 1961 87 NI BB NOT_NAMED 1961-09-07 15:00:00 TS 22.7099 83.8184 main 0 0 P________PO___ IO131961 22.7148 83.8276 -1 22.7148 83.8276 TC 25 22.7000 83.8000 1 12 279
1961248N22089 1961 87 NI BB NOT_NAMED 1961-09-07 18:00:00 TS 22.7850 83.2036 main 0 0 O________OP___ jtwc_io IO131961 22.8000 83.2000 -1 22.8000 83.2000 TC 25 22.7550 83.2108 1 11 275
1961248N22089 1961 87 NI BB NOT_NAMED 1961-09-07 21:00:00 TS 22.7992 82.6419 main 0 0 P________PP___ IO131961 22.7996 82.6421 -1 22.7996 82.6421 TC 25 22.7983 82.6415 1 10 272
1961248N22089 1961 87 NI BB NOT_NAMED 1961-09-08 00:00:00 TS 22.8142 82.0921 main 0 0 O________OP___ jtwc_io IO131961 22.8000 82.1000 -1 22.8000 82.1000 TC 25 22.8425 82.0764 1 10 275
1961248N22089 1961 87 NI BB NOT_NAMED 1961-09-08 03:00:00 TS 22.8898 81.5150 main 0 0 P________PO___ IO131961 22.8847 81.5226 -1 22.8847 81.5226 TC 25 22.9000 81.5000 1 11 279
1961248N22089 1961 87 NI BB NOT_NAMED 1961-09-08 06:00:00 TS 22.9941 80.8803 main 0 0 O________OP___ jtwc_io IO131961 23.0000 80.9000 -1 23.0000 80.9000 TC 25 22.9822 80.8410 1 12 279
1961248N22089 1961 87 NI BB NOT_NAMED 1961-09-08 09:00:00 TS 23.0931 80.1768 main 0 0 P________PP___ IO131961 23.1003 80.1775 -1 23.1003 80.1775 TC 25 23.0786 80.1755 1 13 279
1961248N22089 1961 87 NI BB NOT_NAMED 1961-09-08 12:00:00 TS 23.1952 79.5157 main 0 0 O________OP___ jtwc_io IO131961 23.2000 79.5000 -1 23.2000 79.5000 TC 25 23.1855 79.5472 1 11 281
1961248N22089 1961 87 NI BB NOT_NAMED 1961-09-08 15:00:00 TS 23.2998 78.9933 main 0 0 P________PO___ IO131961 23.2997 78.9899 -1 23.2997 78.9899 TC 25 23.3000 79.0000 1 9 284
1961248N22089 1961 87 NI BB NOT_NAMED 1961-09-08 18:00:00 TS 23.4001 78.5934 main 0 0 O________OP___ jtwc_io IO131961 23.4000 78.6000 -1 23.4000 78.6000 TC 25 23.4002 78.5801 1 7 286
1961248N22089 1961 87 NI BB NOT_NAMED 1961-09-08 21:00:00 TS 23.4935 78.2663 main 0 0 P________PP___ IO131961 23.4848 78.2773 -1 23.4848 78.2773 TC 25 23.5109 78.2442 1 6 291
1961248N22089 1961 87 NI AS NOT_NAMED 1961-09-09 00:00:00 TS 23.6137 77.9871 main 0 0 O________OP___ jtwc_io IO131961 23.6000 78.0000 -1 23.6000 78.0000 TC 25 23.6412 77.9613 1 6 299
1961248N22089 1961 87 NI AS NOT_NAMED 1961-09-09 03:00:00 TS 23.7850 77.7000 main 0 0 P________PO___ IO131961 23.7774 77.7000 -1 23.7774 77.7000 TC 25 23.8000 77.7000 1 7 305
1961248N22089 1961 87 NI AS NOT_NAMED 1961-09-09 06:00:00 TS 23.9987 77.3942 main 0 0 O________OP___ jtwc_io IO131961 24.0000 77.4000 -1 24.0000 77.4000 TC 25 23.9963 77.3825 1 7 309
1961248N22089 1961 87 NI AS NOT_NAMED 1961-09-09 09:00:00 TS 24.2401 77.0794 main 0 0 P________PP___ IO131961 24.2500 77.0776 -1 24.2500 77.0776 TC 25 24.2201 77.0830 1 7 312
1961248N22089 1961 87 NI AS NOT_NAMED 1961-09-09 12:00:00 TS 24.4863 76.8056 main 0 0 O________OP___ jtwc_io IO131961 24.5000 76.8000 -1 24.5000 76.8000 TC 25 24.4588 76.8169 1 6 317
1961248N22089 1961 87 NI AS NOT_NAMED 1961-09-09 15:00:00 TS 24.6999 76.6132 main 0 0 P________PO___ IO131961 24.6999 76.6198 -1 24.6999 76.6198 TC 25 24.7000 76.6000 1 5 326
1961248N22089 1961 87 NI AS NOT_NAMED 1961-09-09 18:00:00 TS 24.9150 76.4858 main 0 0 O________OP___ jtwc_io IO131961 24.9000 76.5000 -1 24.9000 76.5000 TC 25 24.9450 76.4573 1 5 335
1961248N22089 1961 87 NI AS NOT_NAMED 1961-09-09 21:00:00 TS 25.1623 76.3823 main 0 0 P________PP___ IO131961 25.1500 76.3925 -1 25.1500 76.3925 TC 25 25.1871 76.3619 1 5 341
1961248N22089 1961 87 NI AS NOT_NAMED 1961-09-10 00:00:00 TS 25.4036 76.2952 main 0 0 O________OP___ jtwc_io IO131961 25.4000 76.3000 -1 25.4000 76.3000 TC 25 25.4107 76.2855 1 5 341
1961248N22089 1961 87 NI AS NOT_NAMED 1961-09-10 03:00:00 TS 25.6200 76.2100 main 0 0 P________PO___ IO131961 25.6299 76.2150 -1 25.6299 76.2150 TC 25 25.6000 76.2000 1 4 333
1961248N22089 1961 87 NI AS NOT_NAMED 1961-09-10 06:00:00 TS 25.7773 76.0840 main 0 0 O________OP___ jtwc_io IO131961 25.8000 76.1000 -1 25.8000 76.1000 TC 25 25.7320 76.0521 1 4 310
1961248N22089 1961 87 NI AS NOT_NAMED 1961-09-10 09:00:00 TS 25.8534 75.8974 main 0 0 P________PP___ IO131961 25.8651 75.8999 -1 25.8651 75.8999 TC 25 25.8301 75.8923 1 4 291
1961248N22089 1961 87 NI AS NOT_NAMED 1961-09-10 12:00:00 TS 25.9044 75.7122 main 0 0 O________OP___ jtwc_io IO131961 25.9000 75.7000 -1 25.9000 75.7000 TC 25 25.9132 75.7365 1 3 296
1961248N22089 1961 87 NI AS NOT_NAMED 1961-09-10 15:00:00 TS 25.9900 75.5800 main 0 0 P________PO___ IO131961 25.9850 75.5700 -1 25.9850 75.5700 TC 25 26.0000 75.6000 1 3 319
1961248N22089 1961 87 NI AS NOT_NAMED 1961-09-10 18:00:00 TS 26.1071 75.5173 main 0 0 O________OP___ jtwc_io IO131961 26.1000 75.5000 -1 26.1000 75.5000 TC 25 26.1214 75.5518 1 3 348
1961248N22089 1961 87 NI AS NOT_NAMED 1961-09-10 21:00:00 TS 26.2497 75.5205 main 0 0 P________PP___ IO131961 26.2499 75.5223 -1 26.2499 75.5223 TC 25 26.2492 75.5168 1 3 352
1961248N22089 1961 87 NI AS NOT_NAMED 1961-09-11 00:00:00 TS 26.3925 75.4829 main 0 0 O________OP___ jtwc_io IO131961 26.4000 75.5000 -1 26.4000 75.5000 TC 25 26.3775 75.4486 1 3 323
1961248N22089 1961 87 NI AS NOT_NAMED 1961-09-11 03:00:00 TS 26.5000 75.3066 main 0 0 P________PO___ IO131961 26.4999 75.3099 -1 26.4999 75.3099 TC 25 26.5000 75.3000 1 5 297
1961248N22089 1961 87 NI AS NOT_NAMED 1961-09-11 06:00:00 TS 26.6133 75.0068 main 0 0 O________OP___ jtwc_io IO131961 26.6000 75.0000 -1 26.6000 75.0000 TC 25 26.6400 75.0203 1 7 294
1961248N22089 1961 87 NI AS NOT_NAMED 1961-09-11 09:00:00 TS 26.7710 74.6340 main 0 0 P________PP___ IO131961 26.7726 74.6229 -1 26.7726 74.6229 TC 25 26.7679 74.6564 1 8 291
1961248N22089 1961 87 NI AS NOT_NAMED 1961-09-11 12:00:00 TS 26.8872 74.2131 main 0 0 O________OP___ jtwc_io IO131961 26.9000 74.2000 -1 26.9000 74.2000 TC 25 26.8617 74.2392 1 7 279
1961248N22089 1961 87 NI AS NOT_NAMED 1961-09-11 15:00:00 TS 26.8915 73.8049 main 0 0 P________PO___ IO131961 26.8873 73.8073 -1 26.8873 73.8073 TC 25 26.9000 73.8000 1 7 265
1961248N22089 1961 87 NI AS NOT_NAMED 1961-09-11 18:00:00 TS 26.8193 73.3853 main 0 0 O________OP___ jtwc_io IO131961 26.8000 73.4000 -1 26.8000 73.4000 TC 25 26.8579 73.3559 1 8 258
1961248N22089 1961 87 NI AS NOT_NAMED 1961-09-11 21:00:00 TS 26.7253 72.9295 main 0 0 P________PP___ IO131961 26.7076 72.9424 -1 26.7076 72.9424 TC 25 26.7606 72.9037 1 8 255
1961248N22089 1961 87 NI AS NOT_NAMED 1961-09-12 00:00:00 TS 26.6110 72.4916 main 0 0 O________OP___ jtwc_io IO131961 26.6000 72.5000 -1 26.6000 72.5000 TC 25 26.6330 72.4748 1 8 253
1961248N22089 1961 87 NI AS NOT_NAMED 1961-09-12 03:00:00 TS 26.5000 72.1084 main 0 0 P________PO___ IO131961 26.4999 72.1125 -1 26.4999 72.1125 TC 25 26.5000 72.1000 1 7 251
1961248N22089 1961 87 NI AS NOT_NAMED 1961-09-12 06:00:00 TS 26.4011 71.8033 main 0 0 O________OP___ jtwc_io IO131961 26.4000 71.8000 -1 26.4000 71.8000 TC 25 26.4034 71.8098 1 5 247
1961248N22089 1961 87 NI AS NOT_NAMED 1961-09-12 09:00:00 TS 26.3022 71.5769 main 0 0 P________PP___ IO131961 26.2999 71.5776 -1 26.2999 71.5776 TC 25 26.3067 71.5755 1 4 242
1961248N22089 1961 87 NI AS NOT_NAMED 1961-09-12 12:00:00 TS 26.2022 71.3928 main 0 0 O________OP___ jtwc_io IO131961 26.2000 71.4000 -1 26.2000 71.4000 TC 25 26.2067 71.3784 1 4 239
1961248N22089 1961 87 NI AS NOT_NAMED 1961-09-12 15:00:00 TS 26.1000 71.1950 main 0 0 P________PO___ IO131961 26.1000 71.1925 -1 26.1000 71.1925 TC 25 26.1000 71.2000 1 4 239
1961248N22089 1961 87 NI AS NOT_NAMED 1961-09-12 18:00:00 TS 25.9980 71.0105 main 0 0 O________OP___ jtwc_io IO131961 26.0000 71.0000 -1 26.0000 71.0000 TC 25 25.9940 71.0314 1 4 237
1961248N22089 1961 87 NI AS NOT_NAMED 1961-09-12 21:00:00 TS 25.9031 70.8628 main 0 0 P________PP___ IO131961 25.9149 70.8577 -1 25.9149 70.8577 TC 25 25.8795 70.8732 1 4 232
1961248N22089 1961 87 NI AS NOT_NAMED 1961-09-13 00:00:00 TS 25.7834 70.7011 main 0 0 O________OP___ jtwc_io IO131961 25.8000 70.7000 -1 25.8000 70.7000 TC 25 25.7502 70.7034 1 5 229
1961248N22089 1961 87 NI AS NOT_NAMED 1961-09-13 03:00:00 TS 25.6100 70.4817 main 0 0 P________PO___ IO131961 25.6150 70.4725 -1 25.6150 70.4725 TC 25 25.6000 70.5000 1 6 230
1961248N22089 1961 87 NI AS NOT_NAMED 1961-09-13 06:00:00 TS 25.4086 70.2119 main 0 0 O________OP___ jtwc_io IO131961 25.4000 70.2000 -1 25.4000 70.2000 TC 25 25.4257 70.2358 1 6 232
1961248N22089 1961 87 NI AS NOT_NAMED 1961-09-13 09:00:00 TS 25.2100 69.9175 main 0 0 P________PP___ IO131961 25.2000 69.9076 -1 25.2000 69.9076 TC 25 25.2301 69.9374 1 7 234
1961248N22089 1961 87 NI AS NOT_NAMED 1961-09-13 12:00:00 TS 25.0065 69.6068 main 0 0 O________OP___ jtwc_io IO131961 25.0000 69.6000 -1 25.0000 69.6000 TC 25 25.0194 69.6203 1 7 234
1961248N22089 1961 87 NI AS NOT_NAMED 1961-09-13 15:00:00 TS 24.8050 69.3001 main 0 0 P________PO___ IO131961 24.8074 69.3001 -1 24.8074 69.3001 TC 25 24.8000 69.3000 1 7 233
1961248N22089 1961 87 NI AS NOT_NAMED 1961-09-13 18:00:00 TS 24.5940 69.0014 main 0 0 O________OP___ jtwc_io IO131961 24.6000 69.0000 -1 24.6000 69.0000 TC 25 24.5819 69.0043 1 7 230
1961248N22089 1961 87 NI AS NOT_NAMED 1961-09-13 21:00:00 TS 24.3524 68.7026 main 0 0 P________PP___ IO131961 24.3499 68.7000 -1 24.3499 68.7000 TC 25 24.3572 68.7079 1 7 228
1961248N22089 1961 87 NI AS NOT_NAMED 1961-09-14 00:00:00 TS 24.1096 68.4025 main 0 0 O________OP___ jtwc_io IO131961 24.1000 68.4000 -1 24.1000 68.4000 TC 25 24.1288 68.4075 1 7 230
1961248N22089 1961 87 NI AS NOT_NAMED 1961-09-14 03:00:00 TS 23.8999 68.1052 main 0 0 P________PO___ IO131961 23.8999 68.1077 -1 23.8999 68.1077 TC 25 23.9000 68.1000 1 7 233
1961248N22089 1961 87 NI AS NOT_NAMED 1961-09-14 06:00:00 TS 23.6929 67.7997 main 11 11 O________OP___ jtwc_io IO131961 23.7000 67.8000 -1 23.7000 67.8000 TC 25 23.6787 67.7990 1 7 233
1961248N22089 1961 87 NI AS NOT_NAMED 1961-09-14 09:00:00 TS 23.4523 67.4677 main 35 35 P________PP___ IO131961 23.4500 67.4575 -1 23.4500 67.4575 TC 25 23.4569 67.4883 1 8 232
1961248N22089 1961 87 NI AS NOT_NAMED 1961-09-14 12:00:00 TS 23.2106 67.1195 main 84 84 O________OP___ jtwc_io IO131961 23.2000 67.1000 -1 23.2000 67.1000 TC 25 23.2317 67.1584 1 8 235
1961248N22089 1961 87 NI AS NOT_NAMED 1961-09-14 15:00:00 TS 23.0049 66.7769 main 121 121 P________PO___ IO131961 23.0073 66.7654 -1 23.0073 66.7654 TC 25 23.0000 66.8000 1 8 237
1961248N22089 1961 87 NI AS NOT_NAMED 1961-09-14 18:00:00 TS 22.7791 66.3930 main 165 165 O________OP___ jtwc_io IO131961 22.8000 66.4000 -1 22.8000 66.4000 TC 25 22.7373 66.3789 1 9 236
1961248N22089 1961 87 NI AS NOT_NAMED 1961-09-14 21:00:00 TS 22.4903 65.9446 main 226 226 P________PP___ IO131961 22.5001 65.9498 -1 22.5001 65.9498 TC 25 22.4706 65.9342 1 10 235
1961248N22089 1961 87 NI AS NOT_NAMED 1961-09-15 00:00:00 TS 22.2062 65.4992 main 279 279 O________OP___ jtwc_io IO131961 22.2000 65.5000 -1 22.2000 65.5000 TC 25 22.2186 65.4975 1 9 236
1961248N22089 1961 87 NI AS NOT_NAMED 1961-09-15 03:00:00 TS 21.9799 65.1134 main 324 324 P________PO___ IO131961 21.9699 65.1202 -1 21.9699 65.1202 TC 25 22.0000 65.1000 1 8 239
1961248N22089 1961 87 NI AS NOT_NAMED 1961-09-15 06:00:00 TS 21.8115 64.7915 main 362 362 O________OP___ jtwc_io IO131961 21.8000 64.8000 -1 21.8000 64.8000 TC 25 21.8345 64.7745 1 6 242
1961248N22089 1961 87 NI AS NOT_NAMED 1961-09-15 09:00:00 TS 21.6914 64.5204 main 391 391 P________PP___ IO131961 21.6849 64.5352 -1 21.6849 64.5352 TC 25 21.7044 64.4909 1 5 246
1961248N22089 1961 87 NI AS NOT_NAMED 1961-09-15 12:00:00 TS 21.5991 64.2789 main 402 402 O________OP___ jtwc_io IO131961 21.6000 64.3000 -1 21.6000 64.3000 TC 25 21.5972 64.2368 1 5 247
1961248N22089 1961 87 NI AS NOT_NAMED 1961-09-15 15:00:00 TS 21.5000 64.0334 main 415 415 P________PO___ IO131961 21.5000 64.0500 -1 21.5000 64.0500 TC 25 21.5000 64.0000 1 5 245
1961248N22089 1961 87 NI AS NOT_NAMED 1961-09-15 18:00:00 TS 21.4072 63.8416 main 422 412 O________OP___ jtwc_io IO131961 21.4000 63.8000 -1 21.4000 63.8000 TC 25 21.4216 63.9249 1 4 243
1961248N22089 1961 87 NI AS NOT_NAMED 1961-09-15 21:00:00 TS 21.3202 63.6611 main 415 388 P________PP___ IO131961 21.3073 63.5726 -1 21.3073 63.5726 TC 25 21.3460 63.8380 1 5 245
1961248N22089 1961 87 NI AS NOT_NAMED 1961-09-16 00:00:00 TS 21.2159 63.4023 main 388 362 O________OP___ jtwc_io IO131961 21.2000 63.3000 -1 21.2000 63.3000 TC 25 21.2477 63.6069 1 6 247
1961248N22089 1961 87 NI AS NOT_NAMED 1961-09-16 03:00:00 TS 21.0855 63.0721 main 362 305 P________PO___ IO131961 21.0783 63.0582 -1 21.0783 63.0582 TC 25 21.1000 63.1000 1 10 251
1961248N22089 1961 87 NI AS NOT_NAMED 1961-09-16 06:00:00 TS 20.8925 62.3900 main 305 226 O________OP___ jtwc_io IO131961 20.9000 62.5000 -1 20.9000 62.5000 TC 25 20.8813 62.2250 1 18 255
1961248N22089 1961 87 NI AS NOT_NAMED 1961-09-16 09:00:00 TS 20.6172 61.2319 main 216 132 P________PP___ IO131961 20.6315 61.3706 -1 20.6315 61.3706 TC 25 20.5981 61.0469 1 25 256
1961248N22089 1961 87 NI AS NOT_NAMED 1961-09-16 12:00:00 TS 20.2825 59.7852 main 122 35 O________OP___ jtwc_io IO131961 20.3000 59.9000 -1 20.3000 59.9000 TC 25 20.2651 59.6704 1 29 256
1961248N22089 1961 87 NI AS NOT_NAMED 1961-09-16 15:00:00 NR 19.9000 58.2000 main 49 __________O___ IO131961 -1 TC 19.9000 58.2000 1 31 256

About IBTrACS Database

This database is a web-friendly format of International Best Track Archive for Climate Stewardship (IBTrACS), a global best track data archive curated by NOAA dating back to 1842.

Updated: 2021-10-21